Time;durP1;ratioP1;P1;durP2;ratioP2;P2;SDS_P1;SDS_P2;PMS_P1;PMS_P2;Temp;Humidity;BMP_temperature;BMP_pressure;BME280_temperature;BME280_humidity;BME280_pressure;Samples;Min_cycle;Max_cycle;Signal;HPM_P1;HPM_P2
2023/01/19 00:01:17;;;;;;;13.77;2.20;;;;;;;14.52;48.11;93390.00;4983766;28;20711;-78
2023/01/19 00:03:43;;;;;;;22.58;3.70;;;;;;;14.55;48.06;93397.41;4980433;28;20197;-81
2023/01/19 00:06:10;;;;;;;20.30;3.15;;;;;;;14.61;47.96;93406.03;4982824;28;20632;-81
2023/01/19 00:08:37;;;;;;;28.40;3.75;;;;;;;14.61;47.82;93379.56;4977185;28;20185;-84
2023/01/19 00:11:05;;;;;;;16.17;2.45;;;;;;;14.57;47.83;93411.44;4978668;28;20431;-83
2023/01/19 00:13:32;;;;;;;18.67;2.35;;;;;;;14.62;48.22;93386.56;4985803;28;20210;-79
2023/01/19 00:16:00;;;;;;;27.45;4.78;;;;;;;14.60;48.06;93355.41;4976913;28;20242;-81
2023/01/19 00:18:27;;;;;;;31.10;3.55;;;;;;;14.50;48.32;93367.81;4984699;28;20252;-80
2023/01/19 00:20:54;;;;;;;21.33;3.63;;;;;;;14.41;48.72;93391.91;4989914;28;20221;-82
2023/01/19 00:23:20;;;;;;;18.30;3.10;;;;;;;14.61;48.02;93417.72;4983611;28;20205;-84
2023/01/19 00:25:48;;;;;;;21.00;3.08;;;;;;;14.54;48.32;93404.81;4982769;28;20193;-81
2023/01/19 00:28:17;;;;;;;27.05;3.35;;;;;;;14.50;48.39;93398.56;4988982;28;20713;-80
2023/01/19 00:30:44;;;;;;;31.60;3.38;;;;;;;14.52;48.55;93398.19;4992751;28;20789;-83
2023/01/19 00:33:14;;;;;;;19.20;3.33;;;;;;;14.48;48.33;93390.00;4993293;28;20249;-80
2023/01/19 00:35:41;;;;;;;26.75;3.00;;;;;;;14.55;48.15;93367.44;4992966;28;20241;-78
2023/01/19 00:38:08;;;;;;;15.07;2.00;;;;;;;14.62;48.03;93385.78;4993240;28;20336;-82
2023/01/19 00:40:34;;;;;;;34.60;4.65;;;;;;;14.69;47.49;93392.03;4993052;28;20236;-83
2023/01/19 00:43:01;;;;;;;17.33;3.92;;;;;;;14.70;47.70;93404.50;4992772;28;20197;-78
2023/01/19 00:45:28;;;;;;;10.80;2.70;;;;;;;14.63;47.93;93425.47;4992364;28;20272;-79
2023/01/19 00:47:56;;;;;;;21.08;3.67;;;;;;;14.55;47.83;93405.59;4983909;28;20261;-78
2023/01/19 00:50:25;;;;;;;23.55;3.22;;;;;;;14.52;48.17;93426.22;4992272;28;20202;-81
2023/01/19 00:52:53;;;;;;;16.10;3.22;;;;;;;14.47;48.07;93406.75;4994489;28;20229;-79
2023/01/19 00:55:20;;;;;;;12.85;1.95;;;;;;;14.67;47.17;93421.63;4992273;28;20301;-81
2023/01/19 00:57:47;;;;;;;22.45;2.67;;;;;;;14.65;47.26;93432.13;5003097;28;20201;-77
2023/01/19 01:00:18;;;;;;;18.70;3.38;;;;;;;14.52;47.79;93420.75;5003430;28;20236;-76
2023/01/19 01:02:45;;;;;;;15.93;3.40;;;;;;;14.48;47.75;93413.75;4992407;28;20292;-77
2023/01/19 01:05:12;;;;;;;24.85;3.97;;;;;;;14.61;47.43;93385.00;4992241;28;20209;-76
2023/01/19 01:07:43;;;;;;;16.88;2.45;;;;;;;14.52;47.20;93376.38;4992344;28;20206;-79
2023/01/19 01:10:12;;;;;;;25.23;3.88;;;;;;;14.48;47.71;93402.84;4993082;28;20206;-77
2023/01/19 01:12:40;;;;;;;19.42;3.28;;;;;;;14.48;47.76;93419.19;4994887;28;20205;-79
2023/01/19 01:15:09;;;;;;;17.90;2.63;;;;;;;14.45;47.80;93395.44;4996203;28;20264;-80
2023/01/19 01:17:36;;;;;;;13.32;3.08;;;;;;;14.51;47.03;93397.41;4993848;28;20534;-82
2023/01/19 01:20:04;;;;;;;22.30;2.88;;;;;;;14.58;46.98;93369.41;4992906;28;20229;-79
2023/01/19 01:22:31;;;;;;;21.45;3.42;;;;;;;14.62;46.57;93397.47;4992301;28;20292;-79
2023/01/19 01:24:59;;;;;;;19.98;3.15;;;;;;;14.54;47.52;93401.31;4991821;28;20201;-79
2023/01/19 01:27:26;;;;;;;20.00;3.30;;;;;;;14.62;46.73;93381.13;4983340;28;20650;-78
2023/01/19 01:29:53;;;;;;;17.60;3.25;;;;;;;14.66;46.39;93420.06;4983261;28;20210;-79
2023/01/19 01:32:19;;;;;;;19.20;2.58;;;;;;;14.68;46.35;93385.03;4992151;28;20256;-79
2023/01/19 01:34:46;;;;;;;11.38;2.72;;;;;;;14.64;46.31;93406.03;4992028;28;20221;-80
2023/01/19 01:37:13;;;;;;;16.17;2.92;;;;;;;14.58;46.59;93423.91;4986271;28;20697;-80
2023/01/19 01:39:39;;;;;;;16.27;2.25;;;;;;;14.52;46.85;93387.28;4991586;28;20225;-80
2023/01/19 01:42:16;;;;;;;22.50;3.13;;;;;;;14.50;47.07;93416.84;4991713;28;20315;-77
2023/01/19 01:44:49;;;;;;;14.65;3.00;;;;;;;14.52;46.91;93439.06;4990988;28;20752;-81
2023/01/19 01:47:22;;;;;;;23.98;2.70;;;;;;;14.61;46.05;93441.47;4997054;28;20210;-78
2023/01/19 01:49:51;;;;;;;16.60;2.97;;;;;;;14.70;45.86;93431.75;4991215;28;20221;-77
2023/01/19 01:52:18;;;;;;;20.50;2.70;;;;;;;14.67;46.18;93437.97;4981548;28;20213;-79
2023/01/19 01:54:45;;;;;;;13.52;2.58;;;;;;;14.57;46.42;93416.91;4974839;28;20222;-79
2023/01/19 01:57:14;;;;;;;17.10;2.60;;;;;;;14.53;46.58;93437.91;4977516;28;20677;-78
2023/01/19 01:59:45;;;;;;;23.63;2.90;;;;;;;14.59;45.87;93436.38;4970151;28;20286;-77
2023/01/19 02:05:05;;;;;;;12.35;2.00;;;;;;;14.64;46.02;93448.84;4963252;28;20206;-79
2023/01/19 02:13:18;;;;;;;16.75;3.05;;;;;;;14.71;45.40;93463.31;4952123;29;20214;-80
2023/01/19 02:15:45;;;;;;;15.60;2.13;;;;;;;14.75;45.30;93445.03;4964780;28;20245;-80
2023/01/19 02:18:12;;;;;;;16.92;3.22;;;;;;;14.72;45.41;93434.88;4952218;29;20366;-78
2023/01/19 02:20:42;;;;;;;14.77;2.40;;;;;;;14.64;45.69;93449.63;4955116;28;20869;-78
2023/01/19 02:23:17;;;;;;;11.90;2.10;;;;;;;14.66;45.74;93449.25;4960595;28;20203;-79
2023/01/19 02:25:47;;;;;;;16.17;2.40;;;;;;;14.63;45.63;93409.91;4964960;28;20199;-77
2023/01/19 02:28:15;;;;;;;19.42;2.67;;;;;;;14.60;45.57;93442.63;4964001;28;20637;-79
2023/01/19 02:30:42;;;;;;;9.93;1.80;;;;;;;14.61;45.11;93420.44;4958384;28;20258;-80
2023/01/19 02:33:09;;;;;;;9.88;1.48;;;;;;;14.66;45.06;93425.50;4970646;28;20202;-78
2023/01/19 02:35:38;;;;;;;17.75;2.33;;;;;;;14.57;45.50;93428.59;4957761;28;20665;-78
2023/01/19 02:38:07;;;;;;;8.25;2.13;;;;;;;14.60;45.24;93421.59;4957691;28;20215;-77
2023/01/19 02:40:34;;;;;;;18.63;2.33;;;;;;;14.62;45.73;93422.00;4970825;28;20266;-78
2023/01/19 02:43:04;;;;;;;16.38;2.70;;;;;;;14.56;45.58;93409.88;4969699;28;20214;-79
2023/01/19 02:45:31;;;;;;;10.93;1.90;;;;;;;14.55;45.49;93430.13;4959141;28;20210;-80
2023/01/19 02:47:58;;;;;;;16.90;2.60;;;;;;;14.62;45.67;93424.72;4970370;28;20271;-80
2023/01/19 02:50:48;;;;;;;14.40;3.33;;;;;;;14.61;45.22;93412.25;4970377;28;20206;-78
2023/01/19 02:53:47;;;;;;;13.52;2.85;;;;;;;14.50;45.54;93409.47;4966962;28;20262;-81
2023/01/19 02:56:58;;;;;;;16.30;2.25;;;;;;;14.56;45.84;93399.00;4962127;28;20306;-79
2023/01/19 02:59:43;;;;;;;14.82;2.95;;;;;;;14.52;45.62;93425.44;4946194;28;20206;-80
2023/01/19 03:02:23;;;;;;;16.10;2.03;;;;;;;14.47;45.88;93418.41;4981075;28;21054;-77
2023/01/19 03:05:07;;;;;;;16.00;2.28;;;;;;;14.49;45.42;93398.94;4990134;28;20264;-79
2023/01/19 03:07:44;;;;;;;16.88;2.53;;;;;;;14.46;45.75;93418.78;4975201;28;20290;-76
2023/01/19 03:10:20;;;;;;;14.18;1.95;;;;;;;14.52;44.97;93400.91;4980493;28;20800;-78
2023/01/19 03:12:52;;;;;;;14.60;2.05;;;;;;;14.47;45.40;93387.66;4977174;28;20201;-78
2023/01/19 03:15:26;;;;;;;13.75;2.65;;;;;;;14.46;45.51;93405.19;4989842;28;20615;-77
2023/01/19 03:17:53;;;;;;;15.73;2.80;;;;;;;14.36;45.96;93430.38;4983334;28;20795;-82
2023/01/19 03:20:24;;;;;;;11.15;1.85;;;;;;;14.44;45.53;93412.94;4982845;28;20233;-78
2023/01/19 03:22:55;;;;;;;16.00;2.22;;;;;;;14.45;45.21;93403.59;4981912;28;20210;-80
2023/01/19 03:25:25;;;;;;;17.35;2.05;;;;;;;14.48;44.88;93387.28;4983306;28;20276;-78
2023/01/19 03:27:54;;;;;;;13.20;2.17;;;;;;;14.51;44.64;93381.06;4979021;28;20232;-79
2023/01/19 03:30:27;;;;;;;16.38;2.30;;;;;;;14.47;45.01;93379.50;4974714;28;20745;-80
2023/01/19 03:32:56;;;;;;;15.65;2.92;;;;;;;14.42;45.58;93401.66;4980361;28;20203;-80
2023/01/19 03:35:26;;;;;;;11.30;2.47;;;;;;;14.45;44.94;93346.41;4986050;28;20206;-77
2023/01/19 03:37:56;;;;;;;13.13;2.40;;;;;;;14.48;45.15;93364.72;4980434;28;20692;-77
2023/01/19 03:40:26;;;;;;;20.13;2.85;;;;;;;14.47;45.33;93412.19;4976133;28;20241;-78
2023/01/19 03:42:53;;;;;;;12.57;2.67;;;;;;;14.48;44.65;93370.16;4989445;28;20817;-83
2023/01/19 03:45:23;;;;;;;12.27;2.55;;;;;;;14.49;45.03;93355.34;4984583;28;20198;-76
2023/01/19 03:47:50;;;;;;;19.52;2.72;;;;;;;14.48;45.08;93364.72;4981972;28;20210;-78
2023/01/19 03:50:23;;;;;;;16.95;3.53;;;;;;;14.51;44.53;93366.66;4976749;28;20206;-74
2023/01/19 03:53:02;;;;;;;19.55;2.45;;;;;;;14.47;44.47;93391.16;4989266;28;20214;-78
2023/01/19 03:55:29;;;;;;;25.50;3.08;;;;;;;14.52;43.70;93370.94;4992967;28;20244;-81
2023/01/19 03:57:56;;;;;;;21.77;3.38;;;;;;;14.50;44.29;93400.50;5002441;28;20253;-81
2023/01/19 04:00:24;;;;;;;19.63;3.53;;;;;;;14.39;44.95;93392.25;4983994;28;20230;-81
2023/01/19 04:02:51;;;;;;;21.75;3.15;;;;;;;14.47;44.73;93390.38;4976540;28;20217;-79
2023/01/19 04:05:19;;;;;;;36.88;3.60;;;;;;;14.52;43.85;93379.09;4983584;28;20732;-78
2023/01/19 04:07:48;;;;;;;22.30;3.85;;;;;;;14.53;43.51;93394.28;4986260;28;20194;-76
2023/01/19 04:10:16;;;;;;;24.85;3.80;;;;;;;14.49;43.72;93355.34;4992590;28;20249;-75
2023/01/19 04:12:42;;;;;;;28.35;3.20;;;;;;;14.46;43.51;93348.75;4992268;28;20224;-75
2023/01/19 04:15:09;;;;;;;29.50;3.45;;;;;;;14.63;42.61;93379.94;4992370;28;20664;-76
2023/01/19 04:17:38;;;;;;;39.33;4.68;;;;;;;14.61;42.75;93395.91;4991340;28;20241;-74
2023/01/19 04:20:05;;;;;;;14.52;3.00;;;;;;;14.57;42.86;93384.97;4993399;28;20730;-75
2023/01/19 04:22:33;;;;;;;17.85;3.88;;;;;;;14.60;42.60;93378.00;4984641;28;20281;-74
2023/01/19 04:24:59;;;;;;;18.98;3.83;;;;;;;14.69;42.52;93380.34;4992069;28;20217;-75
2023/01/19 04:27:26;;;;;;;29.23;4.50;;;;;;;14.72;42.19;93390.50;4991912;28;20676;-72
2023/01/19 04:29:53;;;;;;;31.88;4.68;;;;;;;14.67;42.68;93382.69;4992218;28;20205;-72
2023/01/19 04:32:19;;;;;;;23.50;4.15;;;;;;;14.75;41.68;93384.28;4991473;28;20214;-74
2023/01/19 04:34:48;;;;;;;30.27;4.88;;;;;;;14.69;43.10;93391.25;4991362;28;20674;-73
2023/01/19 04:37:14;;;;;;;31.85;4.38;;;;;;;14.64;42.53;93365.13;4991415;28;20197;-74
2023/01/19 04:39:41;;;;;;;26.77;4.15;;;;;;;14.72;42.16;93364.00;4992094;28;20189;-73
2023/01/19 04:42:08;;;;;;;35.20;4.85;;;;;;;14.90;41.63;93375.75;4991347;28;20281;-73
2023/01/19 04:44:34;;;;;;;31.38;4.35;;;;;;;14.89;41.68;93385.09;4991703;28;20201;-75
2023/01/19 04:47:02;;;;;;;23.60;4.88;;;;;;;14.76;42.07;93418.56;4985797;28;20206;-73
2023/01/19 04:49:28;;;;;;;20.17;3.92;;;;;;;14.84;41.77;93431.81;4985278;28;20201;-75
2023/01/19 04:51:57;;;;;;;31.88;5.53;;;;;;;14.72;42.31;93404.91;4985761;28;20213;-75
2023/01/19 04:54:24;;;;;;;29.17;4.38;;;;;;;14.73;41.88;93414.66;4976396;28;20222;-76
2023/01/19 04:56:51;;;;;;;27.95;4.63;;;;;;;14.66;42.08;93420.06;4990658;28;20758;-75
2023/01/19 04:59:19;;;;;;;31.38;4.45;;;;;;;14.63;41.72;93425.47;4997419;28;20202;-73
2023/01/19 05:01:45;;;;;;;25.35;4.32;;;;;;;14.68;41.67;93379.56;4989206;28;20704;-73
2023/01/19 05:04:12;;;;;;;24.25;4.28;;;;;;;14.68;41.82;93425.91;4980554;28;20272;-74
2023/01/19 05:06:39;;;;;;;32.38;4.57;;;;;;;14.82;41.42;93431.41;4982195;28;20206;-74
2023/01/19 05:09:07;;;;;;;24.95;4.18;;;;;;;14.76;41.63;93443.84;4978890;28;20221;-73
2023/01/19 05:11:34;;;;;;;22.73;4.18;;;;;;;14.84;41.16;93452.84;4981996;28;21503;-74
2023/01/19 05:14:01;;;;;;;27.05;4.60;;;;;;;14.77;41.40;93437.22;4980057;28;20402;-75
2023/01/19 05:16:28;;;;;;;37.08;5.00;;;;;;;14.83;41.32;93457.53;4984035;28;20202;-79
2023/01/19 05:18:55;;;;;;;24.42;4.07;;;;;;;14.78;41.56;93460.59;4983622;28;20297;-78
2023/01/19 05:21:22;;;;;;;18.02;3.20;;;;;;;14.78;41.70;93476.97;4981839;28;20244;-79
2023/01/19 05:23:49;;;;;;;22.88;3.63;;;;;;;14.77;41.48;93459.03;4982413;28;20194;-76
2023/01/19 05:26:17;;;;;;;35.90;4.32;;;;;;;14.78;41.42;93466.06;4983113;28;20201;-78
2023/01/19 05:28:44;;;;;;;21.60;3.35;;;;;;;14.76;41.31;93468.38;4990956;28;20209;-78
2023/01/19 05:31:10;;;;;;;29.90;3.88;;;;;;;14.79;41.53;93486.69;4991653;28;20271;-78
2023/01/19 05:33:37;;;;;;;26.92;5.53;;;;;;;14.88;41.07;93481.72;4991410;28;20209;-78
2023/01/19 05:36:04;;;;;;;34.40;4.13;;;;;;;14.84;41.72;93475.44;4990934;28;20583;-78
2023/01/19 05:38:31;;;;;;;30.33;4.13;;;;;;;14.86;41.15;93473.13;4990727;28;20206;-76
2023/01/19 05:40:58;;;;;;;35.58;5.20;;;;;;;14.86;41.03;93475.84;4991161;28;20233;-77
2023/01/19 05:43:26;;;;;;;24.52;4.25;;;;;;;14.80;41.02;93480.09;4991407;28;20252;-76
2023/01/19 05:45:52;;;;;;;31.05;4.60;;;;;;;14.85;40.84;93487.91;4991339;28;20210;-78
2023/01/19 05:48:19;;;;;;;21.70;3.22;;;;;;;14.80;41.48;93506.56;4991270;28;20724;-78
2023/01/19 05:50:48;;;;;;;31.75;4.88;;;;;;;14.80;41.21;93499.19;4990911;28;20209;-78
2023/01/19 05:53:15;;;;;;;24.88;3.88;;;;;;;14.78;41.29;93485.13;4990027;28;20226;-77
2023/01/19 05:55:42;;;;;;;23.92;3.58;;;;;;;14.96;40.88;93503.53;4990703;28;20229;-77
2023/01/19 05:58:08;;;;;;;31.77;5.40;;;;;;;14.87;41.15;93499.22;4977557;28;20198;-78
2023/01/19 06:00:37;;;;;;;34.45;4.53;;;;;;;14.78;41.37;93509.66;4979986;28;20206;-78
2023/01/19 06:03:05;;;;;;;26.92;5.10;;;;;;;14.74;41.50;93533.44;4989264;28;20205;-78
2023/01/19 06:05:32;;;;;;;16.83;3.90;;;;;;;14.81;41.22;93530.72;4991031;28;20280;-78
2023/01/19 06:07:58;;;;;;;25.23;4.22;;;;;;;14.76;41.53;93539.25;5004968;28;20268;-77
2023/01/19 06:10:25;;;;;;;33.53;5.10;;;;;;;14.86;40.90;93518.69;5002444;28;20563;-76
2023/01/19 06:12:52;;;;;;;19.90;4.20;;;;;;;14.84;40.97;93519.06;4997200;28;20251;-81
2023/01/19 06:15:21;;;;;;;29.27;4.95;;;;;;;15.01;40.57;93533.19;5009650;28;20205;-80
2023/01/19 06:17:49;;;;;;;35.28;5.40;;;;;;;15.15;40.33;93533.25;5003558;28;20205;-76
2023/01/19 06:20:17;;;;;;;19.75;3.80;;;;;;;15.27;40.03;93535.63;5003657;28;20201;-76
2023/01/19 06:22:43;;;;;;;27.80;4.20;;;;;;;15.34;40.10;93524.75;4997601;28;20275;-77
2023/01/19 06:25:10;;;;;;;28.42;3.95;;;;;;;15.37;39.89;93523.19;5009920;28;20201;-78
2023/01/19 06:27:38;;;;;;;34.20;5.43;;;;;;;15.38;39.75;93519.31;4997600;28;20209;-75
2023/01/19 06:30:06;;;;;;;32.63;5.28;;;;;;;15.40;40.16;93520.47;4995113;28;20237;-76
2023/01/19 06:32:33;;;;;;;33.67;4.53;;;;;;;15.42;39.85;93540.00;5010143;28;20280;-79
2023/01/19 06:35:01;;;;;;;29.90;4.88;;;;;;;15.46;39.76;93554.41;5002837;28;20197;-79
2023/01/19 06:37:29;;;;;;;17.02;3.95;;;;;;;15.55;39.36;93541.22;5000869;28;20679;-77
2023/01/19 06:39:56;;;;;;;33.28;5.07;;;;;;;15.60;39.23;93538.09;5005329;28;20291;-79
2023/01/19 06:42:22;;;;;;;28.38;3.78;;;;;;;15.63;39.34;93567.38;5009749;28;20307;-76
2023/01/19 06:44:49;;;;;;;36.35;4.63;;;;;;;15.68;38.81;93566.22;5007514;28;20726;-79
2023/01/19 06:47:16;;;;;;;31.13;5.38;;;;;;;15.70;38.97;93576.78;4997999;28;20205;-77
2023/01/19 06:49:43;;;;;;;27.30;4.18;;;;;;;15.76;38.58;93583.41;4994293;28;20261;-78
2023/01/19 06:52:14;;;;;;;36.85;5.93;;;;;;;15.80;38.59;93595.13;4998822;28;20788;-76
2023/01/19 06:54:42;;;;;;;29.98;5.20;;;;;;;15.83;38.31;93589.69;4993398;28;20761;-76
2023/01/19 06:57:09;;;;;;;28.90;4.68;;;;;;;15.84;38.46;93617.78;4992704;28;20341;-75
2023/01/19 06:59:36;;;;;;;34.47;5.85;;;;;;;15.84;38.19;93606.84;4997450;28;20680;-77
2023/01/19 07:02:04;;;;;;;34.15;5.32;;;;;;;15.86;38.10;93604.50;5001042;28;20232;-76
2023/01/19 07:04:34;;;;;;;25.13;5.18;;;;;;;15.90;38.01;93594.38;5003686;28;20260;-77
2023/01/19 07:07:00;;;;;;;26.80;4.22;;;;;;;15.90;38.18;93588.91;5000188;28;20695;-77
2023/01/19 07:09:28;;;;;;;35.67;4.93;;;;;;;15.90;38.03;93595.16;5009372;28;20216;-78
2023/01/19 07:11:55;;;;;;;23.48;4.57;;;;;;;15.96;38.04;93609.22;4995899;28;20584;-79
2023/01/19 07:14:22;;;;;;;34.22;4.80;;;;;;;15.96;37.97;93592.84;5002184;28;20213;-79
2023/01/19 07:16:49;;;;;;;31.08;5.13;;;;;;;16.06;37.32;93592.06;5008180;28;20213;-78
2023/01/19 07:19:15;;;;;;;32.38;4.32;;;;;;;16.07;37.57;93610.03;5003723;28;20229;-77
2023/01/19 07:21:42;;;;;;;29.38;4.82;;;;;;;16.13;37.45;93581.13;5000266;28;20294;-73
2023/01/19 07:24:09;;;;;;;29.35;5.18;;;;;;;16.20;36.77;93581.16;5007712;28;20252;-73
2023/01/19 07:26:37;;;;;;;34.33;5.50;;;;;;;16.20;37.21;93596.78;5007770;28;20213;-73
2023/01/19 07:29:04;;;;;;;29.95;5.13;;;;;;;16.24;37.04;93597.56;5007842;28;20256;-75
2023/01/19 07:31:31;;;;;;;22.88;3.90;;;;;;;16.27;36.65;93619.41;4996227;28;20616;-79
2023/01/19 07:33:58;;;;;;;43.05;4.72;;;;;;;16.35;36.51;93615.53;5002171;28;20205;-75
2023/01/19 07:36:25;;;;;;;32.30;5.00;;;;;;;16.35;36.76;93604.59;4988730;28;20205;-76
2023/01/19 07:38:52;;;;;;;33.15;5.13;;;;;;;16.38;37.21;93613.22;5001090;28;20668;-74
2023/01/19 07:41:19;;;;;;;27.75;5.03;;;;;;;16.43;36.68;93588.19;4989087;28;20209;-76
2023/01/19 07:43:50;;;;;;;25.65;3.88;;;;;;;16.45;36.61;93603.03;5006577;28;20201;-79
2023/01/19 07:46:16;;;;;;;32.95;5.18;;;;;;;16.47;36.49;93594.47;4995449;28;20225;-77
2023/01/19 07:48:45;;;;;;;26.15;4.75;;;;;;;16.53;36.25;93595.66;4988382;28;20620;-79
2023/01/19 07:51:16;;;;;;;42.70;5.57;;;;;;;16.60;36.06;93593.69;5002684;28;20219;-80
2023/01/19 07:53:43;;;;;;;31.67;4.70;;;;;;;16.68;36.13;93613.63;5000188;28;20226;-78
2023/01/19 07:56:10;;;;;;;32.83;4.57;;;;;;;16.64;35.89;93604.66;5002149;28;20233;-77
2023/01/19 07:58:37;;;;;;;36.03;5.60;;;;;;;16.69;35.73;93612.44;4996492;28;20201;-78
2023/01/19 08:01:07;;;;;;;35.15;4.57;;;;;;;16.75;35.78;93588.25;4993250;28;20264;-77
2023/01/19 08:03:34;;;;;;;35.25;4.80;;;;;;;16.75;35.90;93605.44;4997633;28;20244;-79
2023/01/19 08:06:03;;;;;;;28.88;4.85;;;;;;;16.82;35.87;93580.78;4995466;28;20202;-80
2023/01/19 08:08:31;;;;;;;41.88;5.22;;;;;;;16.84;35.66;93608.53;4999371;28;20256;-78
2023/01/19 08:10:58;;;;;;;35.75;5.13;;;;;;;16.85;35.47;93623.78;5002072;28;20688;-77
2023/01/19 08:13:25;;;;;;;30.13;5.47;;;;;;;16.87;35.39;93601.50;4998926;28;20251;-78
2023/01/19 08:15:53;;;;;;;37.42;5.28;;;;;;;16.88;35.73;93603.88;4992448;28;20209;-79
2023/01/19 08:18:21;;;;;;;47.38;5.53;;;;;;;16.93;35.73;93611.69;4999486;28;20202;-77
2023/01/19 08:20:48;;;;;;;29.02;5.53;;;;;;;16.99;35.48;93615.56;5004650;28;20206;-79
2023/01/19 08:23:16;;;;;;;30.98;4.78;;;;;;;17.02;35.19;93609.31;4999511;28;20232;-78
2023/01/19 08:25:44;;;;;;;26.08;5.00;;;;;;;16.95;34.96;93603.06;4995886;28;20255;-79
2023/01/19 08:28:13;;;;;;;38.85;5.78;;;;;;;17.09;35.22;93608.50;5008753;28;20229;-76
2023/01/19 08:30:42;;;;;;;35.85;4.95;;;;;;;17.17;35.03;93610.06;5008844;28;20617;-78
2023/01/19 08:33:09;;;;;;;31.08;5.95;;;;;;;17.14;35.34;93594.44;4997026;28;20213;-77
2023/01/19 08:35:40;;;;;;;30.90;4.97;;;;;;;17.15;35.20;93600.69;5007453;28;20201;-78
2023/01/19 08:38:08;;;;;;;38.90;5.47;;;;;;;17.22;34.99;93608.91;5008483;28;20660;-78
2023/01/19 08:40:36;;;;;;;31.40;4.78;;;;;;;17.31;34.89;93614.75;4996987;28;20205;-79
2023/01/19 08:43:06;;;;;;;47.00;5.32;;;;;;;17.31;35.11;93610.03;5011499;28;20241;-77
2023/01/19 08:45:33;;;;;;;17.80;3.55;;;;;;;17.32;35.30;93616.31;5012058;28;20205;-77
2023/01/19 08:48:00;;;;;;;21.88;5.00;;;;;;;17.27;35.46;93617.47;4998322;28;20213;-78
2023/01/19 08:50:27;;;;;;;23.60;4.88;;;;;;;17.26;35.31;93596.75;5000182;28;20209;-77
2023/01/19 08:52:57;;;;;;;30.67;4.80;;;;;;;17.32;35.06;93625.28;5010310;28;20715;-78
2023/01/19 08:55:24;;;;;;;30.77;4.25;;;;;;;17.35;35.21;93631.94;4992112;28;20329;-78
2023/01/19 08:57:52;;;;;;;24.15;4.40;;;;;;;17.32;36.02;93632.72;4997655;28;20707;-79
2023/01/19 09:00:20;;;;;;;19.83;3.97;;;;;;;17.34;35.52;93605.75;5002662;28;20202;-75
2023/01/19 09:02:48;;;;;;;26.63;4.35;;;;;;;17.32;36.15;93621.78;5004287;28;20277;-77
2023/01/19 09:05:15;;;;;;;27.25;4.20;;;;;;;17.33;35.57;93607.69;5001685;28;20212;-78
2023/01/19 09:07:44;;;;;;;19.63;4.10;;;;;;;17.39;35.23;93610.78;5011716;28;20208;-79
2023/01/19 09:10:12;;;;;;;27.90;4.20;;;;;;;17.37;35.25;93607.66;5001263;28;20236;-79
2023/01/19 09:12:39;;;;;;;33.90;4.53;;;;;;;17.38;35.40;93544.31;5004544;28;20198;-75
2023/01/19 09:15:09;;;;;;;27.20;4.78;;;;;;;17.40;35.82;93606.88;5002642;28;20205;-77
2023/01/19 09:17:36;;;;;;;19.60;3.53;;;;;;;17.34;35.66;93587.38;4992826;28;20206;-78
2023/01/19 09:20:05;;;;;;;17.83;4.25;;;;;;;17.46;35.29;93588.88;4992100;28;20213;-77
2023/01/19 09:22:32;;;;;;;26.58;3.72;;;;;;;17.49;35.63;93588.09;5004846;28;20235;-78
2023/01/19 09:24:59;;;;;;;16.23;2.80;;;;;;;17.53;35.22;93561.47;5004084;28;20232;-79
2023/01/19 09:27:27;;;;;;;19.75;3.63;;;;;;;17.58;35.05;93569.28;4992470;28;20212;-78
2023/01/19 09:29:53;;;;;;;19.45;3.80;;;;;;;17.69;34.96;93564.56;5003603;28;20263;-78
2023/01/19 09:32:21;;;;;;;18.33;3.30;;;;;;;17.74;35.12;93577.06;5004633;28;20205;-80
2023/01/19 09:34:52;;;;;;;14.15;3.13;;;;;;;17.77;35.54;93566.06;5004000;28;20201;-79
2023/01/19 09:37:19;;;;;;;29.58;4.10;;;;;;;17.75;35.14;93573.94;5004166;28;20198;-78
2023/01/19 09:39:46;;;;;;;21.27;3.20;;;;;;;17.57;35.20;93562.25;5004434;28;20267;-78
2023/01/19 09:42:20;;;;;;;22.95;3.65;;;;;;;17.68;35.24;93554.78;4991647;28;20229;-78
2023/01/19 09:44:52;;;;;;;27.75;3.55;;;;;;;17.72;35.41;93557.50;5004779;28;20251;-77
2023/01/19 09:47:23;;;;;;;14.07;2.40;;;;;;;17.63;34.95;93549.72;5001287;28;20209;-81
2023/01/19 09:49:53;;;;;;;16.00;3.55;;;;;;;17.62;35.40;93550.88;4997549;28;20263;-78
2023/01/19 09:52:20;;;;;;;21.45;3.47;;;;;;;17.62;36.61;93530.94;5010599;28;20233;-78
2023/01/19 09:54:52;;;;;;;22.80;3.38;;;;;;;17.61;35.41;93568.50;5010743;28;20658;-76
2023/01/19 09:57:21;;;;;;;16.95;3.28;;;;;;;17.65;35.70;93558.31;5003623;28;20197;-78
2023/01/19 09:59:50;;;;;;;18.55;3.35;;;;;;;17.73;34.83;93559.84;5008430;28;20220;-78
2023/01/19 10:02:32;;;;;;;13.13;2.60;;;;;;;17.67;34.61;93538.75;5009796;28;20240;-80
2023/01/19 10:05:01;;;;;;;18.67;3.17;;;;;;;17.71;34.98;93518.38;4997372;28;20664;-79
2023/01/19 10:07:52;;;;;;;22.88;3.05;;;;;;;17.76;34.76;93536.38;5009285;28;20722;-77
2023/01/19 10:10:21;;;;;;;32.78;3.55;;;;;;;17.59;34.86;93505.13;4991194;28;20204;-77
2023/01/19 10:12:59;;;;;;;18.33;2.80;;;;;;;17.64;35.41;93512.94;5003751;28;20719;-80
2023/01/19 10:15:45;;;;;;;23.20;4.00;;;;;;;17.68;35.67;93519.19;5004241;28;20205;-81
2023/01/19 10:18:19;;;;;;;15.23;2.58;;;;;;;17.49;35.96;93527.09;4999163;28;20207;-78
2023/01/19 10:20:50;;;;;;;15.60;2.47;;;;;;;17.36;35.89;93518.50;4996959;28;20655;-77
2023/01/19 10:23:37;;;;;;;12.45;2.65;;;;;;;17.34;35.88;93505.25;5010060;28;20228;-77
2023/01/19 10:26:09;;;;;;;20.23;2.78;;;;;;;17.42;35.40;93497.75;4997277;28;20197;-76
2023/01/19 10:28:37;;;;;;;24.48;3.47;;;;;;;17.41;35.89;93504.41;5009124;28;20251;-76
2023/01/19 10:31:08;;;;;;;18.33;3.10;;;;;;;17.53;35.53;93528.59;4998170;28;20224;-77
2023/01/19 10:33:35;;;;;;;16.88;2.60;;;;;;;17.52;35.71;93520.78;4996714;28;20244;-76
2023/01/19 10:36:05;;;;;;;18.25;3.17;;;;;;;17.28;36.48;93525.97;5011025;28;20252;-78
2023/01/19 10:38:33;;;;;;;11.52;3.38;;;;;;;16.98;36.44;93534.66;4997244;28;20201;-78
2023/01/19 10:41:05;;;;;;;15.43;2.92;;;;;;;16.91;36.13;93526.47;5001429;28;20205;-79
2023/01/19 10:43:43;;;;;;;16.20;3.28;;;;;;;16.89;36.51;93512.41;5004542;28;20261;-79
2023/01/19 10:46:20;;;;;;;9.30;1.92;;;;;;;16.88;36.43;93530.00;5001873;28;20236;-78
2023/01/19 10:48:49;;;;;;;22.23;2.25;;;;;;;16.97;36.41;93508.47;4996640;28;20680;-79
2023/01/19 10:51:16;;;;;;;20.88;3.17;;;;;;;17.03;36.11;93495.97;5009887;28;20251;-78
2023/01/19 10:53:54;;;;;;;17.95;2.92;;;;;;;16.87;36.28;93476.47;5010027;28;20224;-77
2023/01/19 10:56:24;;;;;;;18.30;2.40;;;;;;;16.91;35.89;93488.19;4996245;28;20237;-77
2023/01/19 10:58:51;;;;;;;15.50;2.65;;;;;;;16.94;36.57;93531.19;5000173;28;20205;-76
2023/01/19 11:01:21;;;;;;;21.27;2.85;;;;;;;16.82;37.76;93496.00;4996317;28;20627;-77
2023/01/19 11:03:48;;;;;;;16.80;2.35;;;;;;;16.86;37.75;93501.47;5008391;28;20681;-79
2023/01/19 11:06:27;;;;;;;11.55;2.40;;;;;;;17.03;37.21;93459.63;4996295;28;20216;-78
2023/01/19 11:09:10;;;;;;;12.68;2.90;;;;;;;17.10;36.62;93472.47;4996744;28;20197;-77
2023/01/19 11:11:43;;;;;;;21.42;2.20;;;;;;;17.05;36.44;93492.84;4998238;28;20200;-78
2023/01/19 11:14:12;;;;;;;11.25;2.28;;;;;;;17.13;36.70;93482.63;4993177;28;20205;-76
2023/01/19 11:16:45;;;;;;;16.45;3.08;;;;;;;17.30;36.55;93481.78;4999800;28;20243;-78
2023/01/19 11:19:20;;;;;;;10.95;2.35;;;;;;;17.45;36.12;93466.06;4996836;28;20258;-78
2023/01/19 11:21:47;;;;;;;8.95;2.30;;;;;;;17.46;36.20;93473.88;5009260;28;20205;-78
2023/01/19 11:24:15;;;;;;;15.25;2.90;;;;;;;17.48;36.21;93487.97;4995331;28;20307;-76
2023/01/19 11:26:46;;;;;;;14.20;2.70;;;;;;;17.46;35.95;93473.88;4996609;28;20256;-78
2023/01/19 11:29:18;;;;;;;14.82;3.00;;;;;;;17.43;36.10;93474.69;4995834;28;20233;-76
2023/01/19 11:31:47;;;;;;;15.57;2.72;;;;;;;17.29;36.02;93482.97;4996386;28;20226;-77
2023/01/19 11:34:26;;;;;;;13.88;2.38;;;;;;;17.27;35.57;93457.94;5001775;28;20252;-79
2023/01/19 11:36:58;;;;;;;14.45;2.53;;;;;;;17.13;35.68;93447.06;5002708;28;20211;-79
2023/01/19 11:39:27;;;;;;;14.93;2.35;;;;;;;17.09;35.76;93459.97;5002764;28;20200;-78
2023/01/19 11:41:56;;;;;;;17.73;2.53;;;;;;;17.09;35.67;93457.22;4993737;28;20224;-76